Baltic Marshall — C4KD2 — position and weather

sailwx.info

Track history (hours):
 
Tides and Currents Weather Stations Pressure Air Temp Water Temp Dewpoint Dewpoint Depression Visibility Wind Speed Wind Dir Waves Ship Positions

Baltic Marshall

Last reported at 2014-Aug-01 03:33 UTC. Time now 2014-Aug-01 03:47 UTC.
Position N 54°41' E 010°47'.

Length 183 m; draft 10.9 m.

Type: Tanker. MMSI: 212118000.

Date/timePositionNaut miles runAvg speedWind from/ knotsBaromVisibWave heightAir tempDewpointWater temp
2014-Aug-01 03:33N 54°41' E 010°47'1110.8
2014-Aug-01 02:33N 54°36' E 011°03'1110.8
2014-Aug-01 01:33N 54°33' E 011°21'1111.2
2014-Aug-01 00:33N 54°28' E 011°39'1111.0
2014-Jul-31 23:33N 54°26' E 011°58'10 9.6
2014-Jul-31 22:33N 54°30' E 012°13'1010.2
2014-Jul-31 21:33N 54°39' E 012°21'1212.3
2014-Jul-31 20:33N 54°46' E 012°39'1412.1
2014-Jul-31 19:26N 54°51' E 013°01'1112.5
2014-Jul-31 18:32N 54°55' E 013°19'1212.4
2014-Jul-31 17:33N 54°58' E 013°39'1212.2
2014-Jul-31 16:32N 55°03' E 013°60'1111.3
2014-Jul-31 15:33N 55°10' E 014°14'1211.9
2014-Jul-31 14:33N 55°19' E 014°27'1111.3
2014-Jul-31 13:32N 55°28' E 014°41'1111.5
2014-Jul-31 12:33N 55°33' E 014°59'1412.1
2014-Jul-31 11:23N 55°39' E 015°22'1212.3
2014-Jul-31 10:25N 55°42' E 015°42'3612.2
2014-Jul-31 07:30N 55°50' E 016°44'1312.4
2014-Jul-31 06:27N 55°53' E 017°06'27612.0
2014-Jul-30 07:24N 59°29' E 022°28'1012.4
2014-Jul-30 06:34N 59°33' E 022°47'1312.6
2014-Jul-30 05:32N 59°36' E 023°12'1212.4
2014-Jul-30 04:33N 59°40' E 023°35'1212.5
2014-Jul-30 03:33N 59°44' E 023°58'1212.5
2014-Jul-30 02:33N 59°47' E 024°22'1212.4
2014-Jul-30 01:33N 59°49' E 024°46'1212.3
2014-Jul-30 00:33N 59°52' E 025°10'1312.4
2014-Jul-29 23:31N 59°53' E 025°36'1212.3
2014-Jul-29 22:33N 59°56' E 025°59'1212.2
2014-Jul-29 21:33N 59°59' E 026°22'1212.0
2014-Jul-29 20:33N 60°00' E 026°46'1211.7
2014-Jul-29 19:32N 60°01' E 027°10'43 0.9
2014-Jul-27 22:32N 59°42' E 028°26'19 6.0
2014-Jul-27 19:21N 60°00' E 028°36'1012.2
2014-Jul-27 18:32N 60°06' E 028°19'1313.7
2014-Jul-27 17:33N 60°10' E 027°54'1313.4
2014-Jul-27 16:33N 60°05' E 027°28'1414.3
2014-Jul-27 15:33N 59°58' E 027°04'1414.0
2014-Jul-27 14:33N 59°59' E 026°36'1414.2
2014-Jul-27 13:33N 59°55' E 026°09'1413.6
2014-Jul-27 12:33N 59°52' E 025°43'5 5.2
2014-Jul-27 11:33N 59°50' E 025°32'1313.2
2014-Jul-27 10:33N 59°48' E 025°07'1413.6
2014-Jul-27 09:33N 59°45' E 024°40'1413.7
2014-Jul-27 08:33N 59°42' E 024°14'1413.6
2014-Jul-27 07:33N 59°38' E 023°48'1513.7
2014-Jul-27 06:27N 59°33' E 023°20'1213.8
2014-Jul-27 05:33N 59°29' E 022°57'1414.0
2014-Jul-27 04:33N 59°23' E 022°32'1414.0
2014-Jul-27 03:33N 59°14' E 022°10'1414.0
2014-Jul-27 02:34N 59°06' E 021°50'1414.0
2014-Jul-27 01:34N 58°54' E 021°33'1414.1
2014-Jul-27 00:33N 58°43' E 021°18'1714.0
2014-Jul-26 23:22N 58°29' E 021°00'2714.0
2014-Jul-26 21:27N 58°06' E 020°32'4414.0
2014-Jul-26 18:20N 57°33' E 019°40'2614.2
2014-Jul-26 16:31N 57°13' E 019°09'1414.1
2014-Jul-26 15:33N 57°03' E 018°53'1413.9
2014-Jul-26 14:33N 56°52' E 018°36'1414.0
2014-Jul-26 13:33N 56°43' E 018°17'1414.1
2014-Jul-26 12:33N 56°34' E 017°57'1414.1
2014-Jul-26 11:33N 56°26' E 017°37'1414.1
2014-Jul-26 10:33N 56°17' E 017°17'1414.0
2014-Jul-26 09:32N 56°08' E 016°57'1414.1
2014-Jul-26 08:33N 55°59' E 016°38'1414.0
2014-Jul-26 07:34N 55°53' E 016°16'1413.8
2014-Jul-26 06:33N 55°46' E 015°54'1413.7
2014-Jul-26 05:34N 55°40' E 015°32'1313.4
2014-Jul-26 04:34N 55°34' E 015°12'1413.6
2014-Jul-26 03:33N 55°27' E 014°50'1313.1
2014-Jul-26 02:33N 55°19' E 014°33'1313.3
2014-Jul-26 01:34N 55°09' E 014°16'1413.6
2014-Jul-26 00:34N 55°09' E 013°53'1413.6
2014-Jul-25 23:34N 55°11' E 013°29'1413.5
2014-Jul-25 22:33N 55°13' E 013°06'1313.2
2014-Jul-25 21:33N 55°16' E 012°43'1211.6
2014-Jul-25 20:33N 55°28' E 012°41'1111.0
2014-Jul-25 19:33N 55°39' E 012°41'1212.4
2014-Jul-25 18:33N 55°51' E 012°41'1212.0
2014-Jul-25 17:33N 56°03' E 012°38'1211.9
2014-Jul-25 16:33N 56°11' E 012°21'1414.2
2014-Jul-25 15:33N 56°20' E 012°02'1414.4
2014-Jul-25 14:33N 56°34' E 011°57'1413.9
2014-Jul-25 13:32N 56°48' E 011°50'1414.2
2014-Jul-25 12:34N 57°01' E 011°42'1414.0
2014-Jul-25 11:33N 57°14' E 011°33'1313.5
2014-Jul-25 10:34N 57°27' E 011°25'1313.3
2014-Jul-25 09:33N 57°36' E 011°07'1313.5
2014-Jul-25 08:33N 57°45' E 010°48'1211.8
2014-Jul-25 07:33N 57°47' E 010°26'1313.2
2014-Jul-25 06:34N 57°48' E 010°01'1312.6
2014-Jul-25 05:34N 57°45' E 009°38'1313.1
2014-Jul-25 04:32N 57°38' E 009°17'1313.3
2014-Jul-25 03:33N 57°31' E 008°56'1313.4
2014-Jul-25 02:34N 57°24' E 008°35'1413.7
2014-Jul-25 01:31N 57°16' E 008°13'8013.3
2014-Jul-24 19:33N 56°07' E 006°59'2920.4
2014-Jul-24 18:06N 55°42' E 006°33'4 7.3
2014-Jul-24 17:33N 55°45' E 006°36'2017.0
2014-Jul-24 16:22N 55°28' E 006°18'8 9.1
2014-Jul-24 15:33N 55°22' E 006°10'1313.0
2014-Jul-24 14:32N 55°10' E 005°59'1211.9
2014-Jul-24 13:32N 55°00' E 005°49'1313.3
2014-Jul-24 12:33N 54°49' E 005°37'1313.2
2014-Jul-24 11:32N 54°37' E 005°25'1313.2
2014-Jul-24 10:34N 54°26' E 005°15'1313.3
2014-Jul-24 09:34N 54°14' E 005°04'1313.3
2014-Jul-24 08:34N 54°04' E 004°49'1313.2
2014-Jul-24 07:33N 53°55' E 004°34'1313.4
2014-Jul-24 06:33N 53°45' E 004°18'1413.6
2014-Jul-24 05:33N 53°36' E 003°60'1313.3
2014-Jul-24 04:33N 53°27' E 003°44'1313.5
2014-Jul-24 03:34N 53°15' E 003°35'1413.8
2014-Jul-24 02:34N 53°02' E 003°26'1414.0
2014-Jul-24 01:33N 52°49' E 003°19'1414.4
2014-Jul-24 00:33N 52°35' E 003°15'1414.4
2014-Jul-23 23:33N 52°20' E 003°11'1414.0
2014-Jul-23 22:33N 52°07' E 003°06'1313.2
2014-Jul-23 21:34N 51°54' E 003°05'1212.1
2014-Jul-23 20:34N 51°43' E 003°15'1111.5
2014-Jul-23 19:34N 51°34' E 003°25'10 9.8
2014-Jul-23 18:33N 51°26' E 003°35'6 5.4
2014-Jul-23 17:31N 51°25' E 003°44'0 0.0
2014-Jul-23 16:31N 51°25' E 003°44'0 0.0
2014-Jul-23 15:31N 51°25' E 003°44'0 0.0
2014-Jul-23 14:31N 51°25' E 003°44'0 0.0
2014-Jul-23 13:31N 51°25' E 003°44'0 0.0
2014-Jul-23 12:31N 51°25' E 003°44'0 0.0
2014-Jul-23 11:31N 51°25' E 003°44'0 0.0
2014-Jul-23 10:31N 51°25' E 003°44'0 0.0
2014-Jul-23 09:31N 51°25' E 003°44'0 0.0
2014-Jul-23 08:31N 51°25' E 003°44'0 0.0
2014-Jul-23 07:31N 51°25' E 003°44'0 0.0
2014-Jul-23 06:31N 51°25' E 003°44'0 0.0
2014-Jul-23 05:31N 51°25' E 003°44'0 0.0
2014-Jul-23 04:31N 51°25' E 003°44'0 0.0
2014-Jul-23 03:25N 51°25' E 003°44'0 0.0
2014-Jul-23 02:31N 51°25' E 003°44'0 0.0
2014-Jul-23 01:31N 51°25' E 003°44'0 0.0
2014-Jul-23 00:31N 51°25' E 003°44'0 0.0
2014-Jul-22 23:31N 51°25' E 003°44'0 0.0
2014-Jul-22 22:31N 51°25' E 003°44'0 0.0
2014-Jul-22 21:31N 51°25' E 003°44'0 0.0
2014-Jul-22 20:31N 51°25' E 003°44'0 0.0
2014-Jul-22 19:31N 51°25' E 003°44'0 0.0
2014-Jul-22 18:31N 51°25' E 003°44'0 0.0
2014-Jul-22 17:31N 51°25' E 003°44'0 0.0
2014-Jul-22 16:31N 51°25' E 003°44'0 0.0
2014-Jul-22 15:31N 51°25' E 003°44'0 0.0
2014-Jul-22 14:31N 51°25' E 003°44'0 0.0
2014-Jul-22 13:28N 51°25' E 003°44'0 0.0
2014-Jul-22 12:31N 51°25' E 003°44'0 0.0
2014-Jul-22 11:31N 51°25' E 003°44'0 0.0
2014-Jul-22 10:31N 51°25' E 003°44'0 0.0
2014-Jul-22 09:31N 51°25' E 003°44'0 0.0
2014-Jul-22 08:31N 51°25' E 003°44'0 0.0
2014-Jul-22 07:31N 51°25' E 003°44'0 0.0
2014-Jul-22 06:31N 51°25' E 003°44'0 0.0
2014-Jul-22 05:31N 51°25' E 003°44'0 0.0
2014-Jul-22 04:31N 51°25' E 003°44'  
Track history (hours):
 
Tides and Currents Weather Stations Pressure Air Temp Water Temp Dewpoint Dewpoint Depression Visibility Wind Speed Wind Dir Waves Ship Positions

Baltic Marshall

Last reported at 2014-Aug-01 03:33 UTC. Time now 2014-Aug-01 03:47 UTC.
Position N 54°41' E 010°47'.

Length 183 m; draft 10.9 m.

Type: Tanker. MMSI: 212118000.

Date/timePositionNaut miles runAvg speedWind from/ knotsBaromVisibWave heightAir tempDewpointWater temp
2014-Aug-01 03:33N 54°41' E 010°47'1110.8
2014-Aug-01 02:33N 54°36' E 011°03'1110.8
2014-Aug-01 01:33N 54°33' E 011°21'1111.2
2014-Aug-01 00:33N 54°28' E 011°39'1111.0
2014-Jul-31 23:33N 54°26' E 011°58'10 9.6
2014-Jul-31 22:33N 54°30' E 012°13'1010.2
2014-Jul-31 21:33N 54°39' E 012°21'1212.3
2014-Jul-31 20:33N 54°46' E 012°39'1412.1
2014-Jul-31 19:26N 54°51' E 013°01'1112.5
2014-Jul-31 18:32N 54°55' E 013°19'1212.4
2014-Jul-31 17:33N 54°58' E 013°39'1212.2
2014-Jul-31 16:32N 55°03' E 013°60'1111.3
2014-Jul-31 15:33N 55°10' E 014°14'1211.9
2014-Jul-31 14:33N 55°19' E 014°27'1111.3
2014-Jul-31 13:32N 55°28' E 014°41'1111.5
2014-Jul-31 12:33N 55°33' E 014°59'1412.1
2014-Jul-31 11:23N 55°39' E 015°22'1212.3
2014-Jul-31 10:25N 55°42' E 015°42'3612.2
2014-Jul-31 07:30N 55°50' E 016°44'1312.4
2014-Jul-31 06:27N 55°53' E 017°06'27612.0
2014-Jul-30 07:24N 59°29' E 022°28'1012.4
2014-Jul-30 06:34N 59°33' E 022°47'1312.6
2014-Jul-30 05:32N 59°36' E 023°12'1212.4
2014-Jul-30 04:33N 59°40' E 023°35'1212.5
2014-Jul-30 03:33N 59°44' E 023°58'1212.5
2014-Jul-30 02:33N 59°47' E 024°22'1212.4
2014-Jul-30 01:33N 59°49' E 024°46'1212.3
2014-Jul-30 00:33N 59°52' E 025°10'1312.4
2014-Jul-29 23:31N 59°53' E 025°36'1212.3
2014-Jul-29 22:33N 59°56' E 025°59'1212.2
2014-Jul-29 21:33N 59°59' E 026°22'1212.0
2014-Jul-29 20:33N 60°00' E 026°46'1211.7
2014-Jul-29 19:32N 60°01' E 027°10'43 0.9
2014-Jul-27 22:32N 59°42' E 028°26'19 6.0
2014-Jul-27 19:21N 60°00' E 028°36'1012.2
2014-Jul-27 18:32N 60°06' E 028°19'1313.7
2014-Jul-27 17:33N 60°10' E 027°54'1313.4
2014-Jul-27 16:33N 60°05' E 027°28'1414.3
2014-Jul-27 15:33N 59°58' E 027°04'1414.0
2014-Jul-27 14:33N 59°59' E 026°36'1414.2
2014-Jul-27 13:33N 59°55' E 026°09'1413.6
2014-Jul-27 12:33N 59°52' E 025°43'5 5.2
2014-Jul-27 11:33N 59°50' E 025°32'1313.2
2014-Jul-27 10:33N 59°48' E 025°07'1413.6
2014-Jul-27 09:33N 59°45' E 024°40'1413.7
2014-Jul-27 08:33N 59°42' E 024°14'1413.6
2014-Jul-27 07:33N 59°38' E 023°48'1513.7
2014-Jul-27 06:27N 59°33' E 023°20'1213.8
2014-Jul-27 05:33N 59°29' E 022°57'1414.0
2014-Jul-27 04:33N 59°23' E 022°32'1414.0
2014-Jul-27 03:33N 59°14' E 022°10'1414.0
2014-Jul-27 02:34N 59°06' E 021°50'1414.0
2014-Jul-27 01:34N 58°54' E 021°33'1414.1
2014-Jul-27 00:33N 58°43' E 021°18'1714.0
2014-Jul-26 23:22N 58°29' E 021°00'2714.0
2014-Jul-26 21:27N 58°06' E 020°32'4414.0
2014-Jul-26 18:20N 57°33' E 019°40'2614.2
2014-Jul-26 16:31N 57°13' E 019°09'1414.1
2014-Jul-26 15:33N 57°03' E 018°53'1413.9
2014-Jul-26 14:33N 56°52' E 018°36'1414.0
2014-Jul-26 13:33N 56°43' E 018°17'1414.1
2014-Jul-26 12:33N 56°34' E 017°57'1414.1
2014-Jul-26 11:33N 56°26' E 017°37'1414.1
2014-Jul-26 10:33N 56°17' E 017°17'1414.0
2014-Jul-26 09:32N 56°08' E 016°57'1414.1
2014-Jul-26 08:33N 55°59' E 016°38'1414.0
2014-Jul-26 07:34N 55°53' E 016°16'1413.8
2014-Jul-26 06:33N 55°46' E 015°54'1413.7
2014-Jul-26 05:34N 55°40' E 015°32'1313.4
2014-Jul-26 04:34N 55°34' E 015°12'1413.6
2014-Jul-26 03:33N 55°27' E 014°50'1313.1
2014-Jul-26 02:33N 55°19' E 014°33'1313.3
2014-Jul-26 01:34N 55°09' E 014°16'1413.6
2014-Jul-26 00:34N 55°09' E 013°53'1413.6
2014-Jul-25 23:34N 55°11' E 013°29'1413.5
2014-Jul-25 22:33N 55°13' E 013°06'1313.2
2014-Jul-25 21:33N 55°16' E 012°43'1211.6
2014-Jul-25 20:33N 55°28' E 012°41'1111.0
2014-Jul-25 19:33N 55°39' E 012°41'1212.4
2014-Jul-25 18:33N 55°51' E 012°41'1212.0
2014-Jul-25 17:33N 56°03' E 012°38'1211.9
2014-Jul-25 16:33N 56°11' E 012°21'1414.2
2014-Jul-25 15:33N 56°20' E 012°02'1414.4
2014-Jul-25 14:33N 56°34' E 011°57'1413.9
2014-Jul-25 13:32N 56°48' E 011°50'1414.2
2014-Jul-25 12:34N 57°01' E 011°42'1414.0
2014-Jul-25 11:33N 57°14' E 011°33'1313.5
2014-Jul-25 10:34N 57°27' E 011°25'1313.3
2014-Jul-25 09:33N 57°36' E 011°07'1313.5
2014-Jul-25 08:33N 57°45' E 010°48'1211.8
2014-Jul-25 07:33N 57°47' E 010°26'1313.2
2014-Jul-25 06:34N 57°48' E 010°01'1312.6
2014-Jul-25 05:34N 57°45' E 009°38'1313.1
2014-Jul-25 04:32N 57°38' E 009°17'1313.3
2014-Jul-25 03:33N 57°31' E 008°56'1313.4
2014-Jul-25 02:34N 57°24' E 008°35'1413.7
2014-Jul-25 01:31N 57°16' E 008°13'8013.3
2014-Jul-24 19:33N 56°07' E 006°59'2920.4
2014-Jul-24 18:06N 55°42' E 006°33'4 7.3
2014-Jul-24 17:33N 55°45' E 006°36'2017.0
2014-Jul-24 16:22N 55°28' E 006°18'8 9.1
2014-Jul-24 15:33N 55°22' E 006°10'1313.0
2014-Jul-24 14:32N 55°10' E 005°59'1211.9
2014-Jul-24 13:32N 55°00' E 005°49'1313.3
2014-Jul-24 12:33N 54°49' E 005°37'1313.2
2014-Jul-24 11:32N 54°37' E 005°25'1313.2
2014-Jul-24 10:34N 54°26' E 005°15'1313.3
2014-Jul-24 09:34N 54°14' E 005°04'1313.3
2014-Jul-24 08:34N 54°04' E 004°49'1313.2
2014-Jul-24 07:33N 53°55' E 004°34'1313.4
2014-Jul-24 06:33N 53°45' E 004°18'1413.6
2014-Jul-24 05:33N 53°36' E 003°60'1313.3
2014-Jul-24 04:33N 53°27' E 003°44'1313.5
2014-Jul-24 03:34N 53°15' E 003°35'1413.8
2014-Jul-24 02:34N 53°02' E 003°26'1414.0
2014-Jul-24 01:33N 52°49' E 003°19'1414.4
2014-Jul-24 00:33N 52°35' E 003°15'1414.4
2014-Jul-23 23:33N 52°20' E 003°11'1414.0
2014-Jul-23 22:33N 52°07' E 003°06'1313.2
2014-Jul-23 21:34N 51°54' E 003°05'1212.1
2014-Jul-23 20:34N 51°43' E 003°15'1111.5
2014-Jul-23 19:34N 51°34' E 003°25'10 9.8
2014-Jul-23 18:33N 51°26' E 003°35'6 5.4
2014-Jul-23 17:31N 51°25' E 003°44'0 0.0
2014-Jul-23 16:31N 51°25' E 003°44'0 0.0
2014-Jul-23 15:31N 51°25' E 003°44'0 0.0
2014-Jul-23 14:31N 51°25' E 003°44'0 0.0
2014-Jul-23 13:31N 51°25' E 003°44'0 0.0
2014-Jul-23 12:31N 51°25' E 003°44'0 0.0
2014-Jul-23 11:31N 51°25' E 003°44'0 0.0
2014-Jul-23 10:31N 51°25' E 003°44'0 0.0
2014-Jul-23 09:31N 51°25' E 003°44'0 0.0
2014-Jul-23 08:31N 51°25' E 003°44'0 0.0
2014-Jul-23 07:31N 51°25' E 003°44'0 0.0
2014-Jul-23 06:31N 51°25' E 003°44'0 0.0
2014-Jul-23 05:31N 51°25' E 003°44'0 0.0
2014-Jul-23 04:31N 51°25' E 003°44'0 0.0
2014-Jul-23 03:25N 51°25' E 003°44'0 0.0
2014-Jul-23 02:31N 51°25' E 003°44'0 0.0
2014-Jul-23 01:31N 51°25' E 003°44'0 0.0
2014-Jul-23 00:31N 51°25' E 003°44'0 0.0
2014-Jul-22 23:31N 51°25' E 003°44'0 0.0
2014-Jul-22 22:31N 51°25' E 003°44'0 0.0
2014-Jul-22 21:31N 51°25' E 003°44'0 0.0
2014-Jul-22 20:31N 51°25' E 003°44'0 0.0
2014-Jul-22 19:31N 51°25' E 003°44'0 0.0
2014-Jul-22 18:31N 51°25' E 003°44'0 0.0
2014-Jul-22 17:31N 51°25' E 003°44'0 0.0
2014-Jul-22 16:31N 51°25' E 003°44'0 0.0
2014-Jul-22 15:31N 51°25' E 003°44'0 0.0
2014-Jul-22 14:31N 51°25' E 003°44'0 0.0
2014-Jul-22 13:28N 51°25' E 003°44'0 0.0
2014-Jul-22 12:31N 51°25' E 003°44'0 0.0
2014-Jul-22 11:31N 51°25' E 003°44'0 0.0
2014-Jul-22 10:31N 51°25' E 003°44'0 0.0
2014-Jul-22 09:31N 51°25' E 003°44'0 0.0
2014-Jul-22 08:31N 51°25' E 003°44'0 0.0
2014-Jul-22 07:31N 51°25' E 003°44'0 0.0
2014-Jul-22 06:31N 51°25' E 003°44'0 0.0
2014-Jul-22 05:31N 51°25' E 003°44'0 0.0
2014-Jul-22 04:31N 51°25' E 003°44'  

Dump ship's entire track history